Terminal Aerodrome Forecast
Issued by NWS Wakefield, VA

Home | Current Version | Previous Version | Text Only | Print | Product List | Glossary On
Versions: 1 2 3 4 5 6 7 8 9 10 11 12 13 14 15 16
944
FTUS41 KAKQ 261120
TAFORF
TAF
KORF 261120Z 2612/2712 25011KT P6SM SKC
     FM261500 27005KT P6SM SCT150
     FM261700 34005KT P6SM VCSH BKN100
     FM261900 VRB05KT P6SM VCSH BKN100
     FM270000 16004KT P6SM BKN100
     FM270200 20004KT P6SM BKN100=

USA.gov is the U.S. government's official web portal to all federal, state and local government web resources and services.